createdAt,value
2023-01-13T00:00:51.565Z,8.29
2023-01-13T00:01:54.216Z,9.71
2023-01-13T00:02:56.787Z,9.08
2023-01-13T00:03:59.363Z,7.42
2023-01-13T00:05:02.085Z,8.10
2023-01-13T00:06:04.704Z,6.35
2023-01-13T00:07:07.380Z,7.74
2023-01-13T00:08:10.161Z,6.42
2023-01-13T00:09:12.935Z,8.02
2023-01-13T00:10:15.375Z,8.62
2023-01-13T00:11:18.452Z,6.64
2023-01-13T00:12:21.230Z,8.02
2023-01-13T00:13:23.902Z,7.06
2023-01-13T00:14:26.973Z,7.73
2023-01-13T00:15:29.658Z,8.62
2023-01-13T00:16:32.731Z,7.33
2023-01-13T00:17:35.506Z,7.84
2023-01-13T00:18:38.280Z,6.85
2023-01-13T00:19:42.199Z,8.18
2023-01-13T00:20:44.827Z,7.64
2023-01-13T00:21:47.593Z,7.27
2023-01-13T00:22:50.177Z,6.86
2023-01-13T00:23:52.863Z,10.74
2023-01-13T00:24:55.727Z,8.91
2023-01-13T00:25:58.706Z,6.88
2023-01-13T00:27:01.467Z,6.73
2023-01-13T00:28:04.303Z,8.17
2023-01-13T00:29:07.115Z,6.82
2023-01-13T00:30:09.903Z,8.13
2023-01-13T00:31:12.781Z,8.67
2023-01-13T00:32:15.664Z,6.66
2023-01-13T00:33:18.325Z,7.33
2023-01-13T00:34:21.044Z,7.47
2023-01-13T00:35:23.765Z,6.68
2023-01-13T00:36:29.316Z,8.12
2023-01-13T00:37:31.857Z,8.75
2023-01-13T00:38:34.689Z,7.40
2023-01-13T00:39:37.609Z,7.28
2023-01-13T00:40:40.484Z,6.70
2023-01-13T00:41:43.353Z,6.52
2023-01-13T00:42:46.033Z,6.41
2023-01-13T00:43:48.699Z,6.90
2023-01-13T00:44:51.365Z,6.60
2023-01-13T00:45:54.027Z,7.15
2023-01-13T00:46:56.811Z,7.62
2023-01-13T00:47:59.530Z,8.21
2023-01-13T00:49:02.070Z,8.17
2023-01-13T00:50:04.609Z,6.78
2023-01-13T00:51:07.389Z,10.24
2023-01-13T00:52:10.062Z,6.71
2023-01-13T00:53:12.619Z,6.38
2023-01-13T00:54:15.522Z,6.61
2023-01-13T00:55:18.067Z,9.86
2023-01-13T00:56:34.077Z,12.23
2023-01-13T00:57:24.834Z,12.52
2023-01-13T00:58:27.404Z,20.18
2023-01-13T00:59:30.200Z,5.79
2023-01-13T01:00:32.808Z,6.34
2023-01-13T01:01:35.563Z,7.33
2023-01-13T01:02:38.452Z,8.77
2023-01-13T01:03:41.260Z,7.51
2023-01-13T01:04:44.243Z,7.81
2023-01-13T01:05:47.018Z,7.37
2023-01-13T01:06:49.787Z,12.74
2023-01-13T01:07:52.557Z,6.18
2023-01-13T01:08:55.245Z,7.50
2023-01-13T01:09:57.900Z,7.48
2023-01-13T01:11:00.462Z,8.23
2023-01-13T01:12:03.234Z,7.24
2023-01-13T01:13:05.916Z,7.63
2023-01-13T01:14:08.677Z,8.47
2023-01-13T01:15:11.345Z,4.25
2023-01-13T01:16:14.188Z,5.65
2023-01-13T01:17:16.995Z,5.01
2023-01-13T01:18:19.898Z,5.44
2023-01-13T01:19:22.491Z,4.58
2023-01-13T01:20:25.360Z,6.68
2023-01-13T01:21:28.099Z,7.52
2023-01-13T01:22:30.775Z,6.12
2023-01-13T01:23:33.323Z,7.37
2023-01-13T01:24:35.986Z,6.44
2023-01-13T01:25:38.556Z,6.01
2023-01-13T01:27:58.751Z,7.80
2023-01-13T01:29:01.318Z,5.95
2023-01-13T01:30:03.884Z,6.37
2023-01-13T01:31:06.636Z,9.47
2023-01-13T01:32:09.239Z,28.32
2023-01-13T01:33:12.196Z,8.35
2023-01-13T01:34:15.236Z,6.66
2023-01-13T01:35:18.116Z,7.00
2023-01-13T01:36:20.928Z,7.92
2023-01-13T01:37:23.496Z,7.78
2023-01-13T01:38:26.601Z,7.96
2023-01-13T01:39:32.218Z,5.33
2023-01-13T01:40:34.778Z,6.33
2023-01-13T01:41:37.478Z,4.94
2023-01-13T01:42:40.015Z,5.38
2023-01-13T01:43:42.889Z,5.65
2023-01-13T01:44:45.560Z,6.82
2023-01-13T01:45:48.333Z,6.42
2023-01-13T01:46:50.968Z,6.36
2023-01-13T01:47:53.564Z,9.47
2023-01-13T01:48:56.133Z,8.46
2023-01-13T01:49:58.806Z,5.56
2023-01-13T01:51:01.473Z,5.08
2023-01-13T01:52:04.154Z,5.87
2023-01-13T01:53:06.745Z,6.08
2023-01-13T01:54:09.390Z,6.35
2023-01-13T01:55:12.287Z,6.00
2023-01-13T01:56:15.154Z,6.32
2023-01-13T01:57:17.916Z,6.69
2023-01-13T01:58:20.890Z,7.14
2023-01-13T01:59:23.977Z,6.65
2023-01-13T02:00:26.845Z,6.61
2023-01-13T02:01:29.768Z,5.96
2023-01-13T02:02:32.438Z,5.76
2023-01-13T02:03:35.050Z,7.92
2023-01-13T02:04:37.826Z,8.23
2023-01-13T02:05:40.401Z,5.67
2023-01-13T02:06:43.172Z,5.25
2023-01-13T02:07:45.941Z,5.74
2023-01-13T02:08:49.030Z,5.39
2023-01-13T02:09:51.999Z,7.16
2023-01-13T02:10:54.691Z,7.42
2023-01-13T02:11:57.465Z,5.84
2023-01-13T02:13:00.526Z,6.13
2023-01-13T02:14:03.493Z,6.38
2023-01-13T02:15:06.480Z,6.02
2023-01-13T02:16:09.118Z,6.08
2023-01-13T02:17:12.015Z,6.65
2023-01-13T02:18:14.819Z,6.92
2023-01-13T02:19:17.767Z,6.35
2023-01-13T02:20:20.551Z,8.15
2023-01-13T02:21:23.127Z,6.36
2023-01-13T02:22:25.849Z,7.48
2023-01-13T02:23:28.555Z,7.71
2023-01-13T02:24:31.324Z,6.98
2023-01-13T02:25:34.393Z,10.27
2023-01-13T02:26:37.074Z,5.52
2023-01-13T02:27:39.943Z,5.28
2023-01-13T02:28:42.817Z,7.42
2023-01-13T02:29:45.684Z,7.65
2023-01-13T02:30:48.762Z,9.59
2023-01-13T02:31:51.476Z,6.92
2023-01-13T02:32:54.307Z,6.73
2023-01-13T02:33:57.195Z,9.15
2023-01-13T02:34:59.959Z,7.93
2023-01-13T02:36:03.128Z,7.55
2023-01-13T02:37:05.711Z,7.22
2023-01-13T02:38:08.489Z,6.36
2023-01-13T02:39:11.047Z,6.97
2023-01-13T02:40:13.614Z,9.13
2023-01-13T02:41:16.308Z,7.27
2023-01-13T02:42:20.499Z,7.54
2023-01-13T02:43:23.382Z,6.35
2023-01-13T02:44:26.115Z,5.81
2023-01-13T02:45:29.077Z,6.04
2023-01-13T02:46:31.987Z,5.45
2023-01-13T02:47:34.668Z,3.83
2023-01-13T02:48:37.239Z,5.84
2023-01-13T02:49:40.097Z,5.22
2023-01-13T02:50:42.987Z,5.82
2023-01-13T02:51:45.955Z,5.47
2023-01-13T02:52:48.733Z,7.92
2023-01-13T02:53:51.589Z,9.03
2023-01-13T02:54:54.274Z,6.95
2023-01-13T02:55:56.841Z,6.96
2023-01-13T02:56:59.812Z,6.22
2023-01-13T02:58:02.691Z,8.98
2023-01-13T02:59:05.773Z,8.44
2023-01-13T03:00:08.567Z,7.67
2023-01-13T03:01:11.623Z,8.41
2023-01-13T03:02:14.629Z,7.12
2023-01-13T03:03:17.375Z,6.16
2023-01-13T03:04:20.244Z,7.34
2023-01-13T03:05:23.143Z,8.82
2023-01-13T03:06:25.683Z,9.98
2023-01-13T03:07:28.761Z,6.10
2023-01-13T03:08:31.542Z,6.61
2023-01-13T03:09:37.390Z,7.88
2023-01-13T03:10:40.297Z,7.69
2023-01-13T03:11:43.030Z,7.80
2023-01-13T03:12:46.133Z,6.42
2023-01-13T03:13:48.677Z,7.37
2023-01-13T03:14:51.453Z,5.69
2023-01-13T03:15:54.135Z,6.66
2023-01-13T03:16:56.799Z,7.22
2023-01-13T03:17:59.571Z,6.53
2023-01-13T03:19:02.188Z,6.01
2023-01-13T03:20:04.801Z,5.02
2023-01-13T03:21:07.568Z,6.73
2023-01-13T03:22:10.245Z,5.52
2023-01-13T03:23:13.131Z,5.54
2023-01-13T03:24:15.792Z,8.41
2023-01-13T03:25:18.364Z,5.98
2023-01-13T03:26:21.046Z,6.48
2023-01-13T03:27:23.689Z,5.86
2023-01-13T03:28:26.766Z,7.27
2023-01-13T03:29:29.752Z,7.38
2023-01-13T03:30:32.775Z,7.22
2023-01-13T03:31:35.761Z,6.76
2023-01-13T03:32:38.571Z,5.63
2023-01-13T03:33:41.695Z,6.65
2023-01-13T03:34:45.550Z,7.51
2023-01-13T03:35:48.243Z,6.28
2023-01-13T03:36:50.996Z,7.18
2023-01-13T03:37:53.871Z,7.81
2023-01-13T03:38:56.871Z,7.17
2023-01-13T03:39:59.751Z,7.58
2023-01-13T03:41:02.603Z,7.06
2023-01-13T03:42:05.373Z,6.83
2023-01-13T03:43:08.164Z,5.92
2023-01-13T03:44:11.230Z,6.47
2023-01-13T03:45:13.998Z,5.72
2023-01-13T03:46:16.716Z,6.84
2023-01-13T03:47:20.601Z,7.31
2023-01-13T03:48:23.340Z,7.62
2023-01-13T03:49:26.749Z,6.53
2023-01-13T03:50:29.741Z,7.17
2023-01-13T03:51:32.263Z,7.02
2023-01-13T03:52:34.835Z,5.35
2023-01-13T03:53:37.553Z,7.01
2023-01-13T03:54:40.292Z,5.43
2023-01-13T03:55:42.993Z,7.43
2023-01-13T03:56:45.631Z,7.64
2023-01-13T03:57:48.348Z,7.91
2023-01-13T03:58:50.984Z,4.50
2023-01-13T03:59:53.830Z,5.33
2023-01-13T04:00:56.652Z,8.98
2023-01-13T04:01:59.500Z,8.68
2023-01-13T04:03:02.146Z,7.58
2023-01-13T04:04:04.767Z,5.48
2023-01-13T04:05:07.508Z,6.54
2023-01-13T04:06:10.069Z,6.39
2023-01-13T04:07:12.616Z,6.31
2023-01-13T04:08:15.301Z,6.63
2023-01-13T04:09:18.058Z,6.10
2023-01-13T04:10:20.856Z,5.12
2023-01-13T04:11:23.420Z,5.15
2023-01-13T04:12:26.005Z,6.81
2023-01-13T04:13:28.758Z,7.43
2023-01-13T04:14:31.657Z,5.90
2023-01-13T04:15:34.912Z,5.42
2023-01-13T04:16:40.979Z,7.00
2023-01-13T04:17:43.524Z,6.86
2023-01-13T04:18:46.116Z,5.19
2023-01-13T04:19:48.742Z,7.21
2023-01-13T04:20:51.638Z,5.92
2023-01-13T04:21:54.206Z,5.99
2023-01-13T04:22:56.861Z,6.89
2023-01-13T04:23:59.647Z,5.75
2023-01-13T04:25:02.409Z,5.38
2023-01-13T04:26:05.425Z,5.15
2023-01-13T04:27:08.179Z,7.25
2023-01-13T04:28:11.052Z,6.17
2023-01-13T04:29:15.651Z,8.45
2023-01-13T04:30:18.031Z,8.50
2023-01-13T04:31:20.894Z,6.76
2023-01-13T04:32:23.657Z,6.73
2023-01-13T04:33:29.094Z,5.72
2023-01-13T04:34:31.776Z,6.01
2023-01-13T04:35:34.431Z,6.25
2023-01-13T04:36:37.108Z,6.58
2023-01-13T04:37:39.672Z,6.93
2023-01-13T04:38:42.361Z,4.84
2023-01-13T04:39:44.921Z,4.92
2023-01-13T04:40:47.484Z,5.88
2023-01-13T04:41:50.163Z,5.30
2023-01-13T04:42:52.840Z,6.91
2023-01-13T04:43:55.515Z,5.19
2023-01-13T04:44:58.183Z,7.01
2023-01-13T04:46:00.781Z,8.77
2023-01-13T04:47:03.498Z,5.55
2023-01-13T04:48:06.061Z,6.52
2023-01-13T04:49:08.668Z,7.37
2023-01-13T04:50:11.201Z,6.01
2023-01-13T04:51:13.888Z,7.33
2023-01-13T04:52:17.275Z,6.70
2023-01-13T04:53:20.032Z,6.29
2023-01-13T04:54:22.817Z,7.02
2023-01-13T04:55:25.684Z,8.72
2023-01-13T04:56:28.404Z,8.10
2023-01-13T04:57:31.107Z,8.94
2023-01-13T04:58:33.682Z,6.98
2023-01-13T04:59:36.455Z,7.65
2023-01-13T05:00:39.126Z,8.47
2023-01-13T05:01:41.990Z,8.81
2023-01-13T05:02:45.309Z,7.50
2023-01-13T05:03:48.069Z,6.83
2023-01-13T05:04:51.032Z,5.78
2023-01-13T05:05:53.735Z,7.69
2023-01-13T05:06:56.474Z,8.26
2023-01-13T05:07:59.487Z,7.08
2023-01-13T05:09:02.464Z,8.35
2023-01-13T05:10:05.332Z,7.13
2023-01-13T05:11:08.180Z,8.81
2023-01-13T05:12:10.955Z,10.38
2023-01-13T05:13:13.930Z,7.69
2023-01-13T05:14:16.725Z,7.75
2023-01-13T05:15:19.486Z,6.68
2023-01-13T05:16:22.417Z,6.36
2023-01-13T05:17:25.368Z,7.59
2023-01-13T05:18:28.517Z,8.53
2023-01-13T05:19:31.183Z,7.19
2023-01-13T05:20:33.757Z,8.49
2023-01-13T05:21:36.427Z,10.35
2023-01-13T05:22:39.297Z,11.41
2023-01-13T05:23:42.194Z,8.57
2023-01-13T05:24:44.937Z,8.27
2023-01-13T05:25:47.816Z,10.23
2023-01-13T05:26:50.688Z,8.12
2023-01-13T05:27:53.566Z,8.45
2023-01-13T05:28:56.461Z,10.25
2023-01-13T05:29:59.206Z,11.33
2023-01-13T05:31:02.178Z,8.76
2023-01-13T05:32:04.777Z,6.73
2023-01-13T05:33:07.631Z,7.09
2023-01-13T05:34:10.400Z,7.12
2023-01-13T05:35:13.285Z,9.86
2023-01-13T05:36:15.950Z,9.37
2023-01-13T05:37:18.834Z,8.26
2023-01-13T05:38:21.606Z,8.32
2023-01-13T05:39:24.777Z,6.19
2023-01-13T05:40:27.571Z,6.62
2023-01-13T05:41:30.324Z,7.66
2023-01-13T05:42:33.417Z,7.62
2023-01-13T05:43:35.970Z,8.38
2023-01-13T05:44:39.070Z,8.15
2023-01-13T05:45:41.622Z,7.02
2023-01-13T05:46:44.371Z,7.48
2023-01-13T05:47:47.084Z,7.92
2023-01-13T05:48:49.650Z,8.07
2023-01-13T05:49:52.390Z,8.44
2023-01-13T05:50:55.091Z,7.14
2023-01-13T05:51:57.690Z,8.53
2023-01-13T05:53:00.311Z,9.41
2023-01-13T05:54:02.884Z,11.58
2023-01-13T05:55:05.440Z,9.17
2023-01-13T05:56:08.001Z,9.55
2023-01-13T05:57:10.686Z,7.75
2023-01-13T05:58:13.267Z,6.94
2023-01-13T05:59:16.114Z,8.70
2023-01-13T06:00:19.137Z,9.28
2023-01-13T06:01:21.688Z,10.18
2023-01-13T06:02:24.545Z,7.11
2023-01-13T06:03:27.420Z,7.22
2023-01-13T06:04:30.123Z,9.08
2023-01-13T06:05:33.170Z,9.21
2023-01-13T06:06:35.728Z,7.75
2023-01-13T06:07:38.633Z,9.41
2023-01-13T06:08:41.499Z,6.77
2023-01-13T06:09:44.235Z,6.43
2023-01-13T06:10:47.425Z,7.09
2023-01-13T06:11:51.246Z,8.94
2023-01-13T06:12:54.014Z,6.28
2023-01-13T06:13:56.977Z,8.58
2023-01-13T06:14:59.947Z,8.71
2023-01-13T06:16:02.652Z,8.95
2023-01-13T06:17:05.397Z,8.68
2023-01-13T06:18:08.275Z,9.29
2023-01-13T06:19:10.935Z,8.94
2023-01-13T06:20:13.612Z,7.52
2023-01-13T06:21:16.682Z,6.69
2023-01-13T06:22:19.482Z,7.01
2023-01-13T06:23:22.142Z,8.07
2023-01-13T06:24:25.015Z,7.56
2023-01-13T06:25:27.569Z,8.90
2023-01-13T06:26:30.364Z,8.95
2023-01-13T06:27:32.913Z,12.80
2023-01-13T06:28:35.884Z,7.74
2023-01-13T06:29:38.757Z,9.52
2023-01-13T06:30:41.538Z,8.08
2023-01-13T06:31:44.668Z,9.32
2023-01-13T06:32:47.390Z,9.49
2023-01-13T06:33:50.436Z,7.81
2023-01-13T06:34:53.039Z,8.47
2023-01-13T06:35:55.806Z,7.46
2023-01-13T06:36:58.798Z,9.23
2023-01-13T06:38:01.582Z,7.36
2023-01-13T06:39:04.535Z,8.78
2023-01-13T06:40:07.324Z,8.58
2023-01-13T06:41:10.146Z,8.18
2023-01-13T06:42:13.379Z,8.69
2023-01-13T06:43:17.040Z,8.18
2023-01-13T06:44:20.585Z,9.36
2023-01-13T06:45:23.318Z,9.29
2023-01-13T06:46:27.258Z,12.23
2023-01-13T06:47:30.404Z,8.95
2023-01-13T06:48:33.193Z,10.53
2023-01-13T06:49:35.851Z,8.25
2023-01-13T06:50:38.606Z,7.85
2023-01-13T06:51:41.705Z,8.45
2023-01-13T06:52:44.488Z,10.85
2023-01-13T06:53:47.340Z,8.62
2023-01-13T06:54:50.018Z,9.10
2023-01-13T06:55:52.678Z,9.59
2023-01-13T06:56:55.349Z,8.92
2023-01-13T06:57:58.158Z,10.35
2023-01-13T06:59:00.808Z,6.08
2023-01-13T07:00:03.429Z,6.68
2023-01-13T07:01:06.190Z,8.99
2023-01-13T07:02:08.990Z,9.08
2023-01-13T07:03:11.903Z,9.46
2023-01-13T07:04:14.455Z,8.66
2023-01-13T07:05:17.136Z,9.60
2023-01-13T07:06:19.901Z,8.02
2023-01-13T07:07:22.468Z,10.61
2023-01-13T07:08:25.280Z,9.93
2023-01-13T07:09:30.801Z,7.55
2023-01-13T07:10:33.328Z,9.05
2023-01-13T07:11:35.954Z,11.16
2023-01-13T07:12:38.466Z,9.52
2023-01-13T07:13:41.159Z,9.85
2023-01-13T07:14:43.701Z,7.49
2023-01-13T07:15:46.484Z,8.55
2023-01-13T07:16:49.365Z,9.12
2023-01-13T07:17:52.175Z,8.15
2023-01-13T07:18:54.902Z,7.62
2023-01-13T07:19:57.455Z,6.35
2023-01-13T07:21:00.212Z,7.39
2023-01-13T07:22:02.914Z,7.48
2023-01-13T07:23:05.566Z,7.67
2023-01-13T07:24:08.697Z,11.73
2023-01-13T07:25:14.741Z,6.99
2023-01-13T07:26:17.373Z,10.11
2023-01-13T07:27:20.041Z,9.79
2023-01-13T07:28:22.606Z,8.21
2023-01-13T07:29:25.187Z,9.87
2023-01-13T07:30:27.857Z,8.22
2023-01-13T07:31:30.815Z,7.89
2023-01-13T07:32:33.475Z,8.14
2023-01-13T07:33:36.278Z,10.02
2023-01-13T07:34:39.346Z,9.28
2023-01-13T07:35:41.939Z,9.38
2023-01-13T07:36:44.509Z,9.71
2023-01-13T07:37:47.069Z,10.13
2023-01-13T07:38:49.874Z,10.33
2023-01-13T07:39:52.795Z,13.63
2023-01-13T07:40:55.679Z,11.51
2023-01-13T07:41:58.553Z,10.98
2023-01-13T07:43:01.128Z,10.59
2023-01-13T07:44:03.787Z,10.01
2023-01-13T07:45:06.362Z,10.22
2023-01-13T07:46:09.155Z,9.83
2023-01-13T07:47:11.899Z,11.17
2023-01-13T07:48:14.704Z,11.33
2023-01-13T07:49:17.245Z,9.98
2023-01-13T07:50:19.813Z,12.04
2023-01-13T07:51:22.645Z,12.81
2023-01-13T07:52:25.367Z,12.00
2023-01-13T07:53:28.596Z,9.44
2023-01-13T07:54:40.052Z,11.82
2023-01-13T07:55:36.023Z,11.11
2023-01-13T07:56:38.809Z,12.16
2023-01-13T07:57:41.579Z,9.94
2023-01-13T07:58:44.540Z,11.81
2023-01-13T07:59:47.205Z,9.70
2023-01-13T08:00:51.049Z,8.00
2023-01-13T08:01:54.392Z,11.22
2023-01-13T08:02:57.584Z,8.92
2023-01-13T08:04:00.553Z,11.96
2023-01-13T08:05:03.626Z,10.23
2023-01-13T08:06:06.421Z,13.18
2023-01-13T08:07:09.080Z,12.15
2023-01-13T08:08:11.746Z,11.41
2023-01-13T08:09:14.827Z,8.83
2023-01-13T08:10:17.392Z,11.16
2023-01-13T08:11:23.395Z,12.45
2023-01-13T08:12:24.988Z,12.28
2023-01-13T08:13:27.956Z,15.65
2023-01-13T08:14:30.942Z,12.29
2023-01-13T08:15:33.927Z,14.86
2023-01-13T08:16:36.906Z,13.28
2023-01-13T08:17:39.676Z,11.84
2023-01-13T08:18:42.244Z,13.49
2023-01-13T08:19:44.798Z,11.98
2023-01-13T08:20:47.475Z,12.14
2023-01-13T08:21:50.290Z,13.88
2023-01-13T08:22:53.221Z,14.33
2023-01-13T08:23:56.108Z,13.44
2023-01-13T08:24:58.872Z,13.98
2023-01-13T08:26:01.423Z,14.42
2023-01-13T08:27:04.123Z,15.65
2023-01-13T08:28:06.902Z,14.78
2023-01-13T08:29:10.034Z,14.82
2023-01-13T08:30:13.962Z,11.96
2023-01-13T08:31:17.075Z,11.36
2023-01-13T08:32:19.915Z,12.86
2023-01-13T08:33:22.475Z,13.05
2023-01-13T08:34:25.157Z,13.05
2023-01-13T08:35:27.724Z,11.94
2023-01-13T08:36:30.392Z,12.25
2023-01-13T08:37:33.282Z,12.61
2023-01-13T08:38:35.954Z,13.01
2023-01-13T08:39:38.496Z,13.78
2023-01-13T08:40:41.272Z,13.02
2023-01-13T08:41:43.952Z,14.02
2023-01-13T08:42:48.729Z,10.85
2023-01-13T08:43:51.619Z,11.07
2023-01-13T08:44:54.429Z,12.98
2023-01-13T08:45:57.063Z,13.40
2023-01-13T08:46:59.638Z,13.05
2023-01-13T08:48:02.547Z,14.95
2023-01-13T08:49:05.310Z,13.12
2023-01-13T08:50:08.190Z,13.54
2023-01-13T08:51:10.964Z,12.91
2023-01-13T08:52:13.830Z,11.71
2023-01-13T08:53:17.535Z,14.37
2023-01-13T08:54:20.179Z,13.42
2023-01-13T08:55:22.957Z,14.50
2023-01-13T08:56:25.878Z,13.75
2023-01-13T08:57:28.808Z,13.38
2023-01-13T08:58:31.788Z,14.07
2023-01-13T08:59:34.354Z,17.02
2023-01-13T09:00:36.921Z,13.53
2023-01-13T09:01:39.892Z,13.11
2023-01-13T09:02:42.772Z,12.30
2023-01-13T09:03:45.359Z,13.42
2023-01-13T09:04:47.876Z,18.23
2023-01-13T09:05:50.473Z,16.10
2023-01-13T09:06:53.038Z,14.52
2023-01-13T09:07:55.598Z,18.07
2023-01-13T09:08:58.579Z,16.43
2023-01-13T09:10:01.371Z,17.02
2023-01-13T09:11:04.223Z,17.52
2023-01-13T09:12:07.104Z,14.35
2023-01-13T09:13:09.662Z,15.31
2023-01-13T09:14:12.552Z,16.31
2023-01-13T09:15:15.220Z,13.62
2023-01-13T09:16:18.190Z,16.08
2023-01-13T09:17:21.148Z,16.62
2023-01-13T09:18:24.633Z,19.50
2023-01-13T09:19:28.393Z,15.22
2023-01-13T09:20:31.577Z,16.34
2023-01-13T09:21:34.703Z,13.93
2023-01-13T09:22:37.824Z,15.68
2023-01-13T09:23:40.756Z,17.90
2023-01-13T09:24:44.081Z,15.11
2023-01-13T09:25:47.229Z,13.65
2023-01-13T09:26:50.302Z,12.77
2023-01-13T09:27:56.345Z,12.50
2023-01-13T09:28:59.544Z,11.19
2023-01-13T09:30:02.809Z,15.02
2023-01-13T09:31:06.295Z,14.72
2023-01-13T09:32:09.300Z,14.73
2023-01-13T09:33:12.281Z,15.17
2023-01-13T09:34:18.207Z,13.69
2023-01-13T09:35:21.722Z,12.04
2023-01-13T09:36:24.673Z,10.09
2023-01-13T09:37:27.749Z,12.04
2023-01-13T09:38:30.934Z,12.53
2023-01-13T09:39:34.237Z,10.91
2023-01-13T09:40:37.297Z,12.83
2023-01-13T09:41:40.279Z,12.58
2023-01-13T09:42:43.370Z,14.32
2023-01-13T09:43:46.517Z,16.92
2023-01-13T09:44:49.610Z,15.79
2023-01-13T09:45:52.795Z,12.82
2023-01-13T09:46:55.770Z,13.42
2023-01-13T09:47:58.999Z,16.11
2023-01-13T09:49:02.136Z,16.89
2023-01-13T09:50:05.100Z,14.29
2023-01-13T09:51:08.339Z,13.24
2023-01-13T09:52:11.070Z,12.97
2023-01-13T09:53:14.035Z,13.18
2023-01-13T09:54:17.215Z,15.02
2023-01-13T09:55:20.093Z,13.39
2023-01-13T09:56:23.491Z,13.28
2023-01-13T09:57:26.479Z,13.19
2023-01-13T09:58:29.861Z,14.80
2023-01-13T09:59:32.346Z,12.75
2023-01-13T10:00:35.289Z,15.25
2023-01-13T10:01:38.392Z,15.21
2023-01-13T10:02:41.454Z,13.35
2023-01-13T10:03:44.463Z,14.87
2023-01-13T10:04:47.490Z,14.35
2023-01-13T10:05:50.508Z,12.44
2023-01-13T10:06:53.672Z,14.18
2023-01-13T10:07:56.744Z,13.03
2023-01-13T10:09:00.038Z,13.31
2023-01-13T10:10:03.022Z,14.69
2023-01-13T10:11:06.015Z,16.75
2023-01-13T10:12:09.307Z,13.82
2023-01-13T10:13:12.391Z,18.47
2023-01-13T10:14:14.943Z,14.80
2023-01-13T10:15:17.609Z,16.42
2023-01-13T10:16:20.246Z,15.58
2023-01-13T10:17:23.079Z,13.53
2023-01-13T10:18:25.825Z,12.46
2023-01-13T10:19:28.387Z,14.58
2023-01-13T10:20:30.973Z,15.98
2023-01-13T10:21:33.530Z,16.56
2023-01-13T10:22:36.409Z,14.34
2023-01-13T10:23:39.088Z,12.55
2023-01-13T10:24:41.757Z,10.52
2023-01-13T10:25:44.414Z,12.32
2023-01-13T10:26:47.198Z,16.50
2023-01-13T10:27:49.887Z,14.97
2023-01-13T10:28:52.431Z,12.93
2023-01-13T10:29:55.100Z,13.76
2023-01-13T10:30:58.344Z,11.30
2023-01-13T10:32:01.407Z,13.13
2023-01-13T10:33:04.505Z,12.95
2023-01-13T10:34:07.378Z,11.63
2023-01-13T10:35:10.611Z,13.95
2023-01-13T10:36:13.856Z,12.36
2023-01-13T10:37:17.035Z,15.68
2023-01-13T10:38:20.111Z,14.95
2023-01-13T10:39:23.533Z,16.27
2023-01-13T10:40:26.715Z,12.26
2023-01-13T10:41:29.861Z,17.05
2023-01-13T10:42:33.466Z,15.29
2023-01-13T10:43:36.551Z,15.77
2023-01-13T10:44:39.493Z,12.25
2023-01-13T10:45:42.612Z,14.44
2023-01-13T10:46:45.823Z,16.24
2023-01-13T10:47:48.751Z,14.22
2023-01-13T10:48:51.931Z,15.32
2023-01-13T10:49:54.710Z,15.66
2023-01-13T10:50:57.786Z,13.02
2023-01-13T10:52:01.120Z,13.82
2023-01-13T10:53:04.253Z,14.14
2023-01-13T10:54:07.470Z,12.40
2023-01-13T10:55:10.431Z,14.61
2023-01-13T10:56:13.300Z,13.77
2023-01-13T10:57:16.581Z,15.88
2023-01-13T10:58:19.845Z,11.88
2023-01-13T10:59:23.743Z,12.79
2023-01-13T11:00:26.924Z,12.56
2023-01-13T11:01:30.384Z,14.86
2023-01-13T11:02:33.505Z,11.09
2023-01-13T11:03:36.584Z,12.04
2023-01-13T11:04:39.826Z,13.75
2023-01-13T11:05:42.962Z,16.68
2023-01-13T11:06:45.953Z,19.05
2023-01-13T11:07:49.358Z,15.45
2023-01-13T11:08:52.705Z,14.31
2023-01-13T11:09:56.713Z,15.66
2023-01-13T11:10:59.528Z,15.98
2023-01-13T11:12:02.343Z,13.88
2023-01-13T11:13:05.825Z,14.95
2023-01-13T11:14:09.317Z,14.20
2023-01-13T11:15:12.703Z,15.05
2023-01-13T11:16:16.037Z,13.92
2023-01-13T11:17:18.761Z,13.37
2023-01-13T11:18:21.739Z,11.98
2023-01-13T11:19:24.512Z,11.61
2023-01-13T11:20:27.292Z,13.33
2023-01-13T11:21:30.191Z,14.98
2023-01-13T11:22:33.079Z,17.45
2023-01-13T11:23:36.108Z,14.80
2023-01-13T11:24:39.288Z,13.07
2023-01-13T11:25:42.173Z,14.48
2023-01-13T11:26:45.162Z,10.02
2023-01-13T11:27:48.517Z,13.41
2023-01-13T11:28:51.512Z,15.45
2023-01-13T11:29:54.583Z,16.57
2023-01-13T11:30:57.813Z,14.34
2023-01-13T11:32:01.171Z,13.36
2023-01-13T11:33:04.141Z,10.77
2023-01-13T11:34:07.052Z,13.88
2023-01-13T11:35:10.276Z,12.56
2023-01-13T11:36:13.704Z,10.72
2023-01-13T11:37:16.762Z,12.18
2023-01-13T11:38:19.629Z,11.13
2023-01-13T11:39:22.608Z,14.20
2023-01-13T11:40:25.376Z,13.74
2023-01-13T11:41:28.483Z,12.20
2023-01-13T11:42:31.231Z,14.95
2023-01-13T11:43:34.103Z,13.07
2023-01-13T11:44:36.782Z,13.78
2023-01-13T11:45:39.676Z,11.78
2023-01-13T11:46:42.738Z,14.90
2023-01-13T11:47:45.500Z,17.68
2023-01-13T11:48:48.272Z,14.35
2023-01-13T11:49:51.052Z,13.58
2023-01-13T11:50:54.065Z,14.18
2023-01-13T11:51:57.230Z,15.95
2023-01-13T11:53:00.157Z,16.41
2023-01-13T11:54:02.963Z,17.73
2023-01-13T11:55:05.953Z,16.92
2023-01-13T11:56:09.112Z,14.81
2023-01-13T11:57:12.579Z,13.96
2023-01-13T11:58:16.040Z,15.40
2023-01-13T11:59:19.899Z,17.04
2023-01-13T12:00:23.820Z,16.64
2023-01-13T12:01:27.367Z,14.48
2023-01-13T12:02:30.717Z,14.18
2023-01-13T12:03:33.890Z,16.15
2023-01-13T12:04:36.922Z,13.72
2023-01-13T12:05:39.917Z,16.96
2023-01-13T12:06:42.888Z,16.08
2023-01-13T12:07:45.851Z,19.17
2023-01-13T12:08:48.732Z,16.25
2023-01-13T12:09:51.603Z,15.79
2023-01-13T12:10:54.452Z,14.96
2023-01-13T12:11:57.277Z,15.00
2023-01-13T12:13:00.374Z,14.27
2023-01-13T12:14:03.104Z,16.95
2023-01-13T12:15:05.774Z,12.71
2023-01-13T12:16:08.707Z,12.32
2023-01-13T12:17:11.525Z,13.96
2023-01-13T12:18:14.692Z,12.89
2023-01-13T12:19:17.499Z,14.77
2023-01-13T12:20:20.464Z,11.86
2023-01-13T12:21:23.470Z,13.33
2023-01-13T12:22:26.343Z,13.30
2023-01-13T12:23:29.820Z,16.28
2023-01-13T12:24:32.881Z,15.52
2023-01-13T12:25:36.197Z,14.28
2023-01-13T12:26:39.369Z,15.09
2023-01-13T12:27:42.520Z,14.05
2023-01-13T12:28:45.852Z,13.74
2023-01-13T12:29:48.883Z,16.48
2023-01-13T12:30:51.553Z,15.98
2023-01-13T12:31:54.365Z,17.23
2023-01-13T12:32:57.101Z,12.08
2023-01-13T12:34:00.192Z,13.13
2023-01-13T12:35:03.246Z,11.52
2023-01-13T12:36:06.146Z,13.22
2023-01-13T12:37:09.337Z,15.69
2023-01-13T12:38:12.407Z,13.48
2023-01-13T12:39:15.993Z,13.19
2023-01-13T12:40:19.199Z,17.78
2023-01-13T12:41:22.439Z,14.18
2023-01-13T12:42:25.224Z,14.74
2023-01-13T12:43:28.213Z,13.48
2023-01-13T12:44:31.339Z,13.14
2023-01-13T12:45:34.536Z,14.70
2023-01-13T12:46:37.644Z,17.86
2023-01-13T12:47:40.728Z,19.22
2023-01-13T12:48:43.806Z,20.72
2023-01-13T12:49:47.427Z,14.62
2023-01-13T12:50:50.802Z,16.20
2023-01-13T12:51:53.737Z,17.49
2023-01-13T12:52:56.645Z,15.34
2023-01-13T12:53:59.822Z,13.13
2023-01-13T12:55:03.356Z,19.28
2023-01-13T12:56:06.292Z,16.81
2023-01-13T12:57:09.358Z,18.43
2023-01-13T12:58:12.140Z,17.22
2023-01-13T12:59:15.313Z,14.58
2023-01-13T13:00:18.784Z,14.65
2023-01-13T13:01:22.039Z,18.33
2023-01-13T13:02:25.226Z,20.04
2023-01-13T13:03:28.148Z,14.98
2023-01-13T13:04:31.141Z,17.86
2023-01-13T13:05:33.999Z,21.22
2023-01-13T13:06:37.073Z,18.88
2023-01-13T13:07:40.154Z,20.21
2023-01-13T13:08:43.029Z,15.10
2023-01-13T13:09:46.019Z,18.55
2023-01-13T13:10:49.084Z,20.10
2023-01-13T13:11:51.974Z,17.96
2023-01-13T13:12:54.936Z,15.99
2023-01-13T13:13:58.325Z,16.55
2023-01-13T13:15:03.394Z,17.48
2023-01-13T13:16:06.335Z,16.41
2023-01-13T13:17:09.525Z,17.35
2023-01-13T13:18:12.478Z,15.71
2023-01-13T13:19:15.582Z,18.09
2023-01-13T13:20:18.849Z,15.24
2023-01-13T13:21:22.475Z,16.46
2023-01-13T13:22:25.475Z,19.55
2023-01-13T13:23:28.631Z,16.31
2023-01-13T13:24:31.786Z,17.32
2023-01-13T13:25:34.660Z,18.18
2023-01-13T13:26:38.145Z,15.03
2023-01-13T13:27:41.328Z,14.96
2023-01-13T13:28:44.412Z,13.59
2023-01-13T13:29:47.595Z,15.22
2023-01-13T13:30:50.832Z,11.76
2023-01-13T13:31:53.943Z,14.48
2023-01-13T13:32:57.035Z,13.29
2023-01-13T13:34:00.317Z,15.41
2023-01-13T13:35:03.493Z,13.67
2023-01-13T13:36:06.794Z,15.75
2023-01-13T13:37:10.061Z,15.26
2023-01-13T13:38:12.845Z,16.48
2023-01-13T13:39:15.814Z,14.78
2023-01-13T13:40:18.790Z,13.69
2023-01-13T13:41:21.882Z,15.20
2023-01-13T13:42:25.159Z,18.60
2023-01-13T13:43:28.246Z,14.64
2023-01-13T13:44:31.114Z,18.25
2023-01-13T13:45:33.979Z,17.88
2023-01-13T13:46:36.704Z,13.25